sensor_id;sensor_type;location;lat;lon;timestamp;P1;durP1;ratioP1;P2;durP2;ratioP2
49548;SDS011;35450;44.518;7.466;2023-03-14T00:02:38;34.13;;;24.35;;
49548;SDS011;35450;44.518;7.466;2023-03-14T00:05:43;37.50;;;25.92;;
49548;SDS011;35450;44.518;7.466;2023-03-14T00:08:47;33.17;;;24.20;;
49548;SDS011;35450;44.518;7.466;2023-03-14T00:11:52;30.52;;;24.00;;
49548;SDS011;35450;44.518;7.466;2023-03-14T00:14:56;31.80;;;23.42;;
49548;SDS011;35450;44.518;7.466;2023-03-14T00:18:00;31.15;;;23.95;;
49548;SDS011;35450;44.518;7.466;2023-03-14T00:21:04;28.42;;;18.80;;
49548;SDS011;35450;44.518;7.466;2023-03-14T00:24:10;16.08;;;13.88;;
49548;SDS011;35450;44.518;7.466;2023-03-14T00:27:14;18.77;;;13.00;;
49548;SDS011;35450;44.518;7.466;2023-03-14T00:30:18;14.25;;;11.57;;
49548;SDS011;35450;44.518;7.466;2023-03-14T00:33:23;19.38;;;13.52;;
49548;SDS011;35450;44.518;7.466;2023-03-14T00:36:27;14.55;;;12.23;;
49548;SDS011;35450;44.518;7.466;2023-03-14T00:39:31;14.48;;;11.38;;
49548;SDS011;35450;44.518;7.466;2023-03-14T00:42:35;14.55;;;12.18;;
49548;SDS011;35450;44.518;7.466;2023-03-14T00:45:39;15.70;;;11.95;;
49548;SDS011;35450;44.518;7.466;2023-03-14T00:48:44;15.75;;;11.35;;
49548;SDS011;35450;44.518;7.466;2023-03-14T00:51:49;13.65;;;11.30;;
49548;SDS011;35450;44.518;7.466;2023-03-14T00:54:53;13.20;;;11.00;;
49548;SDS011;35450;44.518;7.466;2023-03-14T00:57:57;15.43;;;11.95;;
49548;SDS011;35450;44.518;7.466;2023-03-14T01:01:07;15.73;;;11.43;;
49548;SDS011;35450;44.518;7.466;2023-03-14T01:04:14;15.05;;;12.32;;
49548;SDS011;35450;44.518;7.466;2023-03-14T01:07:18;14.40;;;11.73;;
49548;SDS011;35450;44.518;7.466;2023-03-14T01:10:22;13.27;;;11.30;;
49548;SDS011;35450;44.518;7.466;2023-03-14T01:13:27;18.27;;;11.70;;
49548;SDS011;35450;44.518;7.466;2023-03-14T01:16:32;15.65;;;11.57;;
49548;SDS011;35450;44.518;7.466;2023-03-14T01:19:38;14.63;;;11.88;;
49548;SDS011;35450;44.518;7.466;2023-03-14T01:22:42;13.00;;;10.68;;
49548;SDS011;35450;44.518;7.466;2023-03-14T01:25:46;14.30;;;11.25;;
49548;SDS011;35450;44.518;7.466;2023-03-14T01:28:52;15.23;;;12.85;;
49548;SDS011;35450;44.518;7.466;2023-03-14T01:31:58;16.02;;;13.10;;
49548;SDS011;35450;44.518;7.466;2023-03-14T01:35:02;15.02;;;11.90;;
49548;SDS011;35450;44.518;7.466;2023-03-14T01:38:06;15.15;;;12.68;;
49548;SDS011;35450;44.518;7.466;2023-03-14T01:41:19;15.75;;;12.70;;
49548;SDS011;35450;44.518;7.466;2023-03-14T01:44:46;16.77;;;13.00;;
49548;SDS011;35450;44.518;7.466;2023-03-14T01:47:54;14.48;;;12.02;;
49548;SDS011;35450;44.518;7.466;2023-03-14T01:50:58;15.05;;;12.63;;
49548;SDS011;35450;44.518;7.466;2023-03-14T01:54:06;16.92;;;13.98;;
49548;SDS011;35450;44.518;7.466;2023-03-14T02:00:22;19.70;;;15.30;;
49548;SDS011;35450;44.518;7.466;2023-03-14T02:03:27;19.67;;;15.65;;
49548;SDS011;35450;44.518;7.466;2023-03-14T02:06:38;19.70;;;16.50;;
49548;SDS011;35450;44.518;7.466;2023-03-14T02:09:56;24.67;;;18.02;;
49548;SDS011;35450;44.518;7.466;2023-03-14T02:13:05;25.65;;;18.63;;
49548;SDS011;35450;44.518;7.466;2023-03-14T02:16:30;23.15;;;18.10;;
49548;SDS011;35450;44.518;7.466;2023-03-14T02:27:11;24.50;;;17.23;;
49548;SDS011;35450;44.518;7.466;2023-03-14T02:30:22;20.00;;;13.73;;
49548;SDS011;35450;44.518;7.466;2023-03-14T02:33:28;16.75;;;13.30;;
49548;SDS011;35450;44.518;7.466;2023-03-14T02:36:32;10.80;;;7.05;;
49548;SDS011;35450;44.518;7.466;2023-03-14T02:39:38;9.32;;;6.97;;
49548;SDS011;35450;44.518;7.466;2023-03-14T02:42:45;12.15;;;7.10;;
49548;SDS011;35450;44.518;7.466;2023-03-14T02:45:49;8.13;;;6.68;;
49548;SDS011;35450;44.518;7.466;2023-03-14T02:52:08;9.10;;;7.10;;
49548;SDS011;35450;44.518;7.466;2023-03-14T02:55:12;9.27;;;6.45;;
49548;SDS011;35450;44.518;7.466;2023-03-14T02:58:19;9.48;;;6.47;;
49548;SDS011;35450;44.518;7.466;2023-03-14T03:01:27;8.85;;;6.03;;
49548;SDS011;35450;44.518;7.466;2023-03-14T03:04:31;8.13;;;5.72;;
49548;SDS011;35450;44.518;7.466;2023-03-14T03:07:35;8.02;;;5.05;;
49548;SDS011;35450;44.518;7.466;2023-03-14T03:10:39;7.63;;;5.60;;
49548;SDS011;35450;44.518;7.466;2023-03-14T03:13:44;8.80;;;6.40;;
49548;SDS011;35450;44.518;7.466;2023-03-14T03:16:49;10.00;;;6.78;;
49548;SDS011;35450;44.518;7.466;2023-03-14T03:19:53;7.85;;;6.18;;
49548;SDS011;35450;44.518;7.466;2023-03-14T03:22:57;18.30;;;10.23;;
49548;SDS011;35450;44.518;7.466;2023-03-14T03:26:02;31.23;;;16.63;;
49548;SDS011;35450;44.518;7.466;2023-03-14T03:29:06;34.10;;;19.58;;
49548;SDS011;35450;44.518;7.466;2023-03-14T03:32:11;21.63;;;15.05;;
49548;SDS011;35450;44.518;7.466;2023-03-14T03:35:15;22.95;;;16.65;;
49548;SDS011;35450;44.518;7.466;2023-03-14T03:38:19;23.48;;;17.00;;
49548;SDS011;35450;44.518;7.466;2023-03-14T03:41:26;27.67;;;19.38;;
49548;SDS011;35450;44.518;7.466;2023-03-14T03:44:30;22.48;;;17.65;;
49548;SDS011;35450;44.518;7.466;2023-03-14T03:47:34;24.60;;;17.63;;
49548;SDS011;35450;44.518;7.466;2023-03-14T03:50:46;21.90;;;16.48;;
49548;SDS011;35450;44.518;7.466;2023-03-14T03:53:53;20.08;;;16.02;;
49548;SDS011;35450;44.518;7.466;2023-03-14T03:57:04;20.33;;;15.75;;
49548;SDS011;35450;44.518;7.466;2023-03-14T04:00:11;21.45;;;16.30;;
49548;SDS011;35450;44.518;7.466;2023-03-14T04:03:18;19.63;;;14.50;;
49548;SDS011;35450;44.518;7.466;2023-03-14T04:06:23;17.23;;;13.82;;
49548;SDS011;35450;44.518;7.466;2023-03-14T04:09:30;16.85;;;13.13;;
49548;SDS011;35450;44.518;7.466;2023-03-14T04:12:46;13.98;;;11.30;;
49548;SDS011;35450;44.518;7.466;2023-03-14T04:15:55;13.32;;;10.73;;
49548;SDS011;35450;44.518;7.466;2023-03-14T04:19:02;12.48;;;9.93;;
49548;SDS011;35450;44.518;7.466;2023-03-14T04:22:08;11.10;;;9.38;;
49548;SDS011;35450;44.518;7.466;2023-03-14T04:25:22;10.60;;;8.57;;
49548;SDS011;35450;44.518;7.466;2023-03-14T04:28:31;10.60;;;9.07;;
49548;SDS011;35450;44.518;7.466;2023-03-14T04:31:36;11.02;;;8.27;;
49548;SDS011;35450;44.518;7.466;2023-03-14T04:34:40;10.88;;;8.85;;
49548;SDS011;35450;44.518;7.466;2023-03-14T04:37:44;11.02;;;8.30;;
49548;SDS011;35450;44.518;7.466;2023-03-14T04:40:52;9.07;;;8.10;;
49548;SDS011;35450;44.518;7.466;2023-03-14T04:43:59;10.73;;;8.13;;
49548;SDS011;35450;44.518;7.466;2023-03-14T04:47:04;11.25;;;8.55;;
49548;SDS011;35450;44.518;7.466;2023-03-14T04:50:09;10.20;;;8.18;;
49548;SDS011;35450;44.518;7.466;2023-03-14T04:53:14;10.50;;;8.32;;
49548;SDS011;35450;44.518;7.466;2023-03-14T04:56:21;8.45;;;7.15;;
49548;SDS011;35450;44.518;7.466;2023-03-14T04:59:25;8.88;;;7.90;;
49548;SDS011;35450;44.518;7.466;2023-03-14T05:02:33;8.75;;;7.25;;
49548;SDS011;35450;44.518;7.466;2023-03-14T05:05:44;7.55;;;6.60;;
49548;SDS011;35450;44.518;7.466;2023-03-14T05:09:14;8.90;;;7.22;;
49548;SDS011;35450;44.518;7.466;2023-03-14T05:12:24;10.30;;;7.70;;
49548;SDS011;35450;44.518;7.466;2023-03-14T05:15:46;8.55;;;6.70;;
49548;SDS011;35450;44.518;7.466;2023-03-14T05:19:28;7.73;;;6.93;;
49548;SDS011;35450;44.518;7.466;2023-03-14T05:23:03;8.35;;;6.75;;
49548;SDS011;35450;44.518;7.466;2023-03-14T05:26:26;8.27;;;6.07;;
49548;SDS011;35450;44.518;7.466;2023-03-14T05:29:42;7.93;;;6.35;;
49548;SDS011;35450;44.518;7.466;2023-03-14T05:33:03;8.15;;;6.38;;
49548;SDS011;35450;44.518;7.466;2023-03-14T05:36:19;8.75;;;6.60;;
49548;SDS011;35450;44.518;7.466;2023-03-14T05:39:36;7.10;;;6.40;;
49548;SDS011;35450;44.518;7.466;2023-03-14T05:43:06;10.07;;;6.72;;
49548;SDS011;35450;44.518;7.466;2023-03-14T05:46:26;6.50;;;5.50;;
49548;SDS011;35450;44.518;7.466;2023-03-14T05:49:49;6.95;;;6.25;;
49548;SDS011;35450;44.518;7.466;2023-03-14T05:53:28;9.30;;;6.20;;
49548;SDS011;35450;44.518;7.466;2023-03-14T05:56:51;6.40;;;5.47;;
49548;SDS011;35450;44.518;7.466;2023-03-14T06:00:01;5.80;;;5.20;;
49548;SDS011;35450;44.518;7.466;2023-03-14T06:03:27;6.85;;;5.20;;
49548;SDS011;35450;44.518;7.466;2023-03-14T06:06:30;6.03;;;4.88;;
49548;SDS011;35450;44.518;7.466;2023-03-14T06:09:36;6.13;;;5.40;;
49548;SDS011;35450;44.518;7.466;2023-03-14T06:12:41;5.80;;;4.95;;
49548;SDS011;35450;44.518;7.466;2023-03-14T06:15:45;12.30;;;8.60;;
49548;SDS011;35450;44.518;7.466;2023-03-14T06:18:49;16.77;;;10.35;;
49548;SDS011;35450;44.518;7.466;2023-03-14T06:21:56;17.77;;;10.68;;
49548;SDS011;35450;44.518;7.466;2023-03-14T06:25:02;17.67;;;11.07;;
49548;SDS011;35450;44.518;7.466;2023-03-14T06:28:08;18.80;;;10.90;;
49548;SDS011;35450;44.518;7.466;2023-03-14T06:31:12;14.73;;;9.27;;
49548;SDS011;35450;44.518;7.466;2023-03-14T06:34:26;9.82;;;6.68;;
49548;SDS011;35450;44.518;7.466;2023-03-14T06:37:30;8.80;;;5.10;;
49548;SDS011;35450;44.518;7.466;2023-03-14T06:40:35;10.50;;;5.60;;
49548;SDS011;35450;44.518;7.466;2023-03-14T06:43:45;8.10;;;6.00;;
49548;SDS011;35450;44.518;7.466;2023-03-14T06:46:50;14.70;;;7.60;;
49548;SDS011;35450;44.518;7.466;2023-03-14T06:49:55;17.92;;;8.38;;
49548;SDS011;35450;44.518;7.466;2023-03-14T06:52:59;11.25;;;7.32;;
49548;SDS011;35450;44.518;7.466;2023-03-14T06:56:04;8.88;;;5.35;;
49548;SDS011;35450;44.518;7.466;2023-03-14T06:59:10;6.47;;;5.32;;
49548;SDS011;35450;44.518;7.466;2023-03-14T07:02:15;6.45;;;5.32;;
49548;SDS011;35450;44.518;7.466;2023-03-14T07:05:20;6.20;;;5.38;;
49548;SDS011;35450;44.518;7.466;2023-03-14T07:08:25;7.57;;;5.82;;
49548;SDS011;35450;44.518;7.466;2023-03-14T07:11:29;8.32;;;5.95;;
49548;SDS011;35450;44.518;7.466;2023-03-14T07:14:33;8.15;;;6.35;;
49548;SDS011;35450;44.518;7.466;2023-03-14T07:17:38;10.65;;;6.32;;
49548;SDS011;35450;44.518;7.466;2023-03-14T07:20:44;8.88;;;6.80;;
49548;SDS011;35450;44.518;7.466;2023-03-14T07:23:50;10.13;;;8.02;;
49548;SDS011;35450;44.518;7.466;2023-03-14T07:26:55;10.10;;;7.40;;
49548;SDS011;35450;44.518;7.466;2023-03-14T07:29:59;13.85;;;8.82;;
49548;SDS011;35450;44.518;7.466;2023-03-14T07:33:04;10.27;;;7.60;;
49548;SDS011;35450;44.518;7.466;2023-03-14T07:36:08;8.80;;;6.85;;
49548;SDS011;35450;44.518;7.466;2023-03-14T07:39:12;9.05;;;7.63;;
49548;SDS011;35450;44.518;7.466;2023-03-14T07:42:24;12.90;;;8.13;;
49548;SDS011;35450;44.518;7.466;2023-03-14T07:45:58;11.82;;;8.57;;
49548;SDS011;35450;44.518;7.466;2023-03-14T07:49:02;10.93;;;8.98;;
49548;SDS011;35450;44.518;7.466;2023-03-14T07:52:06;10.43;;;7.82;;
49548;SDS011;35450;44.518;7.466;2023-03-14T07:55:10;11.18;;;7.65;;
49548;SDS011;35450;44.518;7.466;2023-03-14T07:58:17;9.75;;;7.93;;
49548;SDS011;35450;44.518;7.466;2023-03-14T08:01:22;10.85;;;9.25;;
49548;SDS011;35450;44.518;7.466;2023-03-14T08:04:26;13.98;;;11.77;;
49548;SDS011;35450;44.518;7.466;2023-03-14T08:07:31;14.30;;;10.50;;
49548;SDS011;35450;44.518;7.466;2023-03-14T08:10:35;12.55;;;9.50;;
49548;SDS011;35450;44.518;7.466;2023-03-14T08:13:40;11.07;;;8.95;;
49548;SDS011;35450;44.518;7.466;2023-03-14T08:16:45;11.98;;;9.52;;
49548;SDS011;35450;44.518;7.466;2023-03-14T08:19:49;11.32;;;8.95;;
49548;SDS011;35450;44.518;7.466;2023-03-14T08:22:55;13.15;;;10.05;;
49548;SDS011;35450;44.518;7.466;2023-03-14T08:26:00;10.07;;;8.32;;
49548;SDS011;35450;44.518;7.466;2023-03-14T08:29:04;17.75;;;8.63;;
49548;SDS011;35450;44.518;7.466;2023-03-14T08:32:08;11.40;;;9.00;;
49548;SDS011;35450;44.518;7.466;2023-03-14T08:35:12;11.32;;;8.95;;
49548;SDS011;35450;44.518;7.466;2023-03-14T08:38:16;11.77;;;9.23;;
49548;SDS011;35450;44.518;7.466;2023-03-14T08:41:20;11.88;;;8.45;;
49548;SDS011;35450;44.518;7.466;2023-03-14T08:44:24;12.98;;;8.07;;
49548;SDS011;35450;44.518;7.466;2023-03-14T08:47:28;9.60;;;7.05;;
49548;SDS011;35450;44.518;7.466;2023-03-14T08:50:36;11.20;;;7.88;;
49548;SDS011;35450;44.518;7.466;2023-03-14T08:53:41;9.68;;;8.25;;
49548;SDS011;35450;44.518;7.466;2023-03-14T08:56:45;10.77;;;8.60;;
49548;SDS011;35450;44.518;7.466;2023-03-14T08:59:52;11.77;;;8.60;;
49548;SDS011;35450;44.518;7.466;2023-03-14T09:03:00;11.02;;;8.10;;
49548;SDS011;35450;44.518;7.466;2023-03-14T09:06:04;14.43;;;9.48;;
49548;SDS011;35450;44.518;7.466;2023-03-14T09:09:11;12.15;;;8.13;;
49548;SDS011;35450;44.518;7.466;2023-03-14T09:12:16;10.70;;;8.77;;
49548;SDS011;35450;44.518;7.466;2023-03-14T09:15:20;11.45;;;8.95;;
49548;SDS011;35450;44.518;7.466;2023-03-14T09:18:24;11.73;;;8.63;;
49548;SDS011;35450;44.518;7.466;2023-03-14T09:21:28;11.52;;;9.10;;
49548;SDS011;35450;44.518;7.466;2023-03-14T09:24:32;13.95;;;10.73;;
49548;SDS011;35450;44.518;7.466;2023-03-14T09:27:36;18.85;;;11.50;;
49548;SDS011;35450;44.518;7.466;2023-03-14T09:30:40;13.85;;;10.18;;
49548;SDS011;35450;44.518;7.466;2023-03-14T09:33:44;12.52;;;10.45;;
49548;SDS011;35450;44.518;7.466;2023-03-14T09:36:48;15.68;;;11.70;;
49548;SDS011;35450;44.518;7.466;2023-03-14T09:39:52;16.52;;;10.93;;
49548;SDS011;35450;44.518;7.466;2023-03-14T09:42:56;14.57;;;10.07;;
49548;SDS011;35450;44.518;7.466;2023-03-14T09:46:02;13.25;;;10.27;;
49548;SDS011;35450;44.518;7.466;2023-03-14T09:49:11;12.23;;;9.95;;
49548;SDS011;35450;44.518;7.466;2023-03-14T09:52:24;12.30;;;9.95;;
49548;SDS011;35450;44.518;7.466;2023-03-14T09:55:35;12.73;;;9.93;;
49548;SDS011;35450;44.518;7.466;2023-03-14T09:58:40;12.95;;;10.40;;
49548;SDS011;35450;44.518;7.466;2023-03-14T10:01:46;10.85;;;9.60;;
49548;SDS011;35450;44.518;7.466;2023-03-14T10:04:51;12.02;;;10.13;;
49548;SDS011;35450;44.518;7.466;2023-03-14T10:07:57;12.45;;;9.30;;
49548;SDS011;35450;44.518;7.466;2023-03-14T10:11:01;12.13;;;9.32;;
49548;SDS011;35450;44.518;7.466;2023-03-14T10:14:08;13.70;;;9.65;;
49548;SDS011;35450;44.518;7.466;2023-03-14T10:17:17;15.82;;;10.20;;
49548;SDS011;35450;44.518;7.466;2023-03-14T10:20:26;13.15;;;9.60;;
49548;SDS011;35450;44.518;7.466;2023-03-14T10:24:07;10.88;;;8.63;;
49548;SDS011;35450;44.518;7.466;2023-03-14T10:27:33;9.68;;;8.68;;
49548;SDS011;35450;44.518;7.466;2023-03-14T10:30:40;8.57;;;7.65;;
49548;SDS011;35450;44.518;7.466;2023-03-14T10:34:01;8.52;;;7.22;;
49548;SDS011;35450;44.518;7.466;2023-03-14T10:37:20;13.40;;;7.15;;
49548;SDS011;35450;44.518;7.466;2023-03-14T10:40:59;8.80;;;7.13;;
49548;SDS011;35450;44.518;7.466;2023-03-14T10:43:57;9.55;;;7.65;;
49548;SDS011;35450;44.518;7.466;2023-03-14T10:47:03;8.30;;;7.45;;
49548;SDS011;35450;44.518;7.466;2023-03-14T10:50:25;9.13;;;7.38;;
49548;SDS011;35450;44.518;7.466;2023-03-14T10:53:38;10.82;;;7.97;;
49548;SDS011;35450;44.518;7.466;2023-03-14T10:56:45;8.30;;;6.82;;
49548;SDS011;35450;44.518;7.466;2023-03-14T11:00:05;9.82;;;6.60;;
49548;SDS011;35450;44.518;7.466;2023-03-14T11:03:17;12.98;;;7.60;;
49548;SDS011;35450;44.518;7.466;2023-03-14T11:14:23;14.20;;;8.07;;
49548;SDS011;35450;44.518;7.466;2023-03-14T11:17:11;19.23;;;7.88;;
49548;SDS011;35450;44.518;7.466;2023-03-14T11:20:47;11.18;;;7.70;;
49548;SDS011;35450;44.518;7.466;2023-03-14T11:24:25;9.40;;;7.80;;
49548;SDS011;35450;44.518;7.466;2023-03-14T11:28:01;8.73;;;7.75;;
49548;SDS011;35450;44.518;7.466;2023-03-14T11:31:29;10.18;;;7.88;;
49548;SDS011;35450;44.518;7.466;2023-03-14T11:34:37;8.95;;;7.95;;
49548;SDS011;35450;44.518;7.466;2023-03-14T11:37:51;8.30;;;7.22;;
49548;SDS011;35450;44.518;7.466;2023-03-14T11:40:59;10.00;;;7.90;;
49548;SDS011;35450;44.518;7.466;2023-03-14T11:44:04;8.65;;;7.18;;
49548;SDS011;35450;44.518;7.466;2023-03-14T11:47:34;9.50;;;8.10;;
49548;SDS011;35450;44.518;7.466;2023-03-14T11:50:43;12.70;;;8.57;;
49548;SDS011;35450;44.518;7.466;2023-03-14T11:57:03;10.65;;;8.10;;
49548;SDS011;35450;44.518;7.466;2023-03-14T12:03:39;12.50;;;8.13;;
49548;SDS011;35450;44.518;7.466;2023-03-14T12:07:08;9.50;;;8.15;;
49548;SDS011;35450;44.518;7.466;2023-03-14T12:10:48;9.77;;;7.88;;
49548;SDS011;35450;44.518;7.466;2023-03-14T12:13:55;9.93;;;7.65;;
49548;SDS011;35450;44.518;7.466;2023-03-14T12:20:27;10.32;;;8.00;;
49548;SDS011;35450;44.518;7.466;2023-03-14T12:23:51;9.10;;;7.90;;
49548;SDS011;35450;44.518;7.466;2023-03-14T12:26:56;13.13;;;8.63;;
49548;SDS011;35450;44.518;7.466;2023-03-14T12:30:02;10.30;;;8.77;;
49548;SDS011;35450;44.518;7.466;2023-03-14T12:33:20;11.52;;;8.13;;
49548;SDS011;35450;44.518;7.466;2023-03-14T12:36:53;18.50;;;8.68;;
49548;SDS011;35450;44.518;7.466;2023-03-14T12:40:03;8.77;;;7.88;;
49548;SDS011;35450;44.518;7.466;2023-03-14T12:43:36;9.25;;;8.20;;
49548;SDS011;35450;44.518;7.466;2023-03-14T12:46:42;13.45;;;8.30;;
49548;SDS011;35450;44.518;7.466;2023-03-14T12:49:49;8.95;;;7.93;;
49548;SDS011;35450;44.518;7.466;2023-03-14T12:53:05;12.85;;;9.52;;
49548;SDS011;35450;44.518;7.466;2023-03-14T12:56:22;13.57;;;8.15;;
49548;SDS011;35450;44.518;7.466;2023-03-14T12:59:34;13.25;;;8.15;;
49548;SDS011;35450;44.518;7.466;2023-03-14T13:02:41;14.32;;;8.80;;
49548;SDS011;35450;44.518;7.466;2023-03-14T13:05:54;13.25;;;8.40;;
49548;SDS011;35450;44.518;7.466;2023-03-14T13:13:16;9.55;;;8.55;;
49548;SDS011;35450;44.518;7.466;2023-03-14T13:16:09;9.60;;;7.25;;
49548;SDS011;35450;44.518;7.466;2023-03-14T13:22:26;11.57;;;8.60;;
49548;SDS011;35450;44.518;7.466;2023-03-14T13:25:32;11.65;;;9.50;;
49548;SDS011;35450;44.518;7.466;2023-03-14T13:28:38;13.20;;;8.63;;
49548;SDS011;35450;44.518;7.466;2023-03-14T13:31:43;11.63;;;9.77;;
49548;SDS011;35450;44.518;7.466;2023-03-14T13:34:51;9.45;;;8.18;;
49548;SDS011;35450;44.518;7.466;2023-03-14T13:37:55;13.85;;;9.43;;
49548;SDS011;35450;44.518;7.466;2023-03-14T13:41:05;11.38;;;9.45;;
49548;SDS011;35450;44.518;7.466;2023-03-14T13:44:15;13.43;;;9.35;;
49548;SDS011;35450;44.518;7.466;2023-03-14T13:47:25;13.02;;;9.52;;
49548;SDS011;35450;44.518;7.466;2023-03-14T13:50:30;11.63;;;9.63;;
49548;SDS011;35450;44.518;7.466;2023-03-14T13:53:45;13.15;;;9.57;;
49548;SDS011;35450;44.518;7.466;2023-03-14T13:56:59;14.35;;;10.55;;
49548;SDS011;35450;44.518;7.466;2023-03-14T14:00:05;11.60;;;9.68;;
49548;SDS011;35450;44.518;7.466;2023-03-14T14:03:13;11.05;;;9.50;;
49548;SDS011;35450;44.518;7.466;2023-03-14T14:06:39;17.65;;;11.45;;
49548;SDS011;35450;44.518;7.466;2023-03-14T14:09:52;10.82;;;9.60;;
49548;SDS011;35450;44.518;7.466;2023-03-14T14:13:02;17.73;;;10.30;;
49548;SDS011;35450;44.518;7.466;2023-03-14T14:16:09;13.27;;;9.48;;
49548;SDS011;35450;44.518;7.466;2023-03-14T14:19:13;12.73;;;9.93;;
49548;SDS011;35450;44.518;7.466;2023-03-14T14:22:19;13.18;;;10.60;;
49548;SDS011;35450;44.518;7.466;2023-03-14T14:25:23;11.52;;;9.52;;
49548;SDS011;35450;44.518;7.466;2023-03-14T14:28:29;16.48;;;11.88;;
49548;SDS011;35450;44.518;7.466;2023-03-14T14:31:39;16.02;;;10.63;;
49548;SDS011;35450;44.518;7.466;2023-03-14T14:34:56;12.85;;;11.43;;
49548;SDS011;35450;44.518;7.466;2023-03-14T14:38:02;13.50;;;10.43;;
49548;SDS011;35450;44.518;7.466;2023-03-14T14:41:16;12.85;;;10.23;;
49548;SDS011;35450;44.518;7.466;2023-03-14T14:44:30;15.85;;;10.43;;
49548;SDS011;35450;44.518;7.466;2023-03-14T14:47:47;15.80;;;11.40;;
49548;SDS011;35450;44.518;7.466;2023-03-14T14:50:58;14.02;;;11.07;;
49548;SDS011;35450;44.518;7.466;2023-03-14T14:54:09;12.93;;;10.93;;
49548;SDS011;35450;44.518;7.466;2023-03-14T14:57:17;11.00;;;9.75;;
49548;SDS011;35450;44.518;7.466;2023-03-14T15:00:26;12.82;;;10.65;;
49548;SDS011;35450;44.518;7.466;2023-03-14T15:03:31;13.60;;;9.95;;
49548;SDS011;35450;44.518;7.466;2023-03-14T15:06:37;12.75;;;11.10;;
49548;SDS011;35450;44.518;7.466;2023-03-14T15:09:42;15.48;;;11.27;;
49548;SDS011;35450;44.518;7.466;2023-03-14T15:12:46;12.20;;;10.55;;
49548;SDS011;35450;44.518;7.466;2023-03-14T15:15:52;13.13;;;10.55;;
49548;SDS011;35450;44.518;7.466;2023-03-14T15:19:03;18.27;;;10.98;;
49548;SDS011;35450;44.518;7.466;2023-03-14T15:22:18;12.05;;;10.73;;
49548;SDS011;35450;44.518;7.466;2023-03-14T15:25:23;12.70;;;11.20;;
49548;SDS011;35450;44.518;7.466;2023-03-14T15:28:28;13.88;;;10.65;;
49548;SDS011;35450;44.518;7.466;2023-03-14T15:31:33;15.15;;;10.80;;
49548;SDS011;35450;44.518;7.466;2023-03-14T15:34:39;14.70;;;11.05;;
49548;SDS011;35450;44.518;7.466;2023-03-14T15:37:47;12.63;;;10.25;;
49548;SDS011;35450;44.518;7.466;2023-03-14T15:40:52;15.52;;;10.20;;
49548;SDS011;35450;44.518;7.466;2023-03-14T15:43:56;14.15;;;10.57;;
49548;SDS011;35450;44.518;7.466;2023-03-14T15:47:00;11.85;;;10.10;;
49548;SDS011;35450;44.518;7.466;2023-03-14T15:50:05;12.85;;;11.05;;
49548;SDS011;35450;44.518;7.466;2023-03-14T15:53:13;17.08;;;11.07;;
49548;SDS011;35450;44.518;7.466;2023-03-14T15:56:18;12.32;;;10.88;;
49548;SDS011;35450;44.518;7.466;2023-03-14T15:59:23;13.70;;;10.27;;
49548;SDS011;35450;44.518;7.466;2023-03-14T16:02:28;17.20;;;10.70;;
49548;SDS011;35450;44.518;7.466;2023-03-14T16:05:33;13.07;;;9.82;;
49548;SDS011;35450;44.518;7.466;2023-03-14T16:08:38;13.55;;;10.07;;
49548;SDS011;35450;44.518;7.466;2023-03-14T16:11:42;12.27;;;10.60;;
49548;SDS011;35450;44.518;7.466;2023-03-14T16:14:47;10.93;;;9.35;;
49548;SDS011;35450;44.518;7.466;2023-03-14T16:17:52;12.13;;;10.40;;
49548;SDS011;35450;44.518;7.466;2023-03-14T16:20:57;13.25;;;10.18;;
49548;SDS011;35450;44.518;7.466;2023-03-14T16:24:09;11.55;;;8.52;;
49548;SDS011;35450;44.518;7.466;2023-03-14T16:27:13;8.57;;;4.88;;
49548;SDS011;35450;44.518;7.466;2023-03-14T16:30:17;8.98;;;5.82;;
49548;SDS011;35450;44.518;7.466;2023-03-14T16:33:22;10.45;;;5.45;;
49548;SDS011;35450;44.518;7.466;2023-03-14T16:36:26;11.55;;;5.75;;
49548;SDS011;35450;44.518;7.466;2023-03-14T16:39:30;7.80;;;6.78;;
49548;SDS011;35450;44.518;7.466;2023-03-14T16:42:38;1.85;;;1.42;;
49548;SDS011;35450;44.518;7.466;2023-03-14T16:45:42;0.98;;;0.63;;
49548;SDS011;35450;44.518;7.466;2023-03-14T16:48:46;6.15;;;0.30;;
49548;SDS011;35450;44.518;7.466;2023-03-14T16:51:50;0.20;;;0.20;;
49548;SDS011;35450;44.518;7.466;2023-03-14T16:54:54;0.82;;;0.40;;
49548;SDS011;35450;44.518;7.466;2023-03-14T16:57:58;0.38;;;0.22;;
49548;SDS011;35450;44.518;7.466;2023-03-14T17:01:03;0.22;;;0.20;;
49548;SDS011;35450;44.518;7.466;2023-03-14T17:04:13;12.10;;;0.40;;
49548;SDS011;35450;44.518;7.466;2023-03-14T17:07:17;3.35;;;0.60;;
49548;SDS011;35450;44.518;7.466;2023-03-14T17:10:21;0.35;;;0.15;;
49548;SDS011;35450;44.518;7.466;2023-03-14T17:13:26;2.38;;;0.38;;
49548;SDS011;35450;44.518;7.466;2023-03-14T17:16:30;0.20;;;0.20;;
49548;SDS011;35450;44.518;7.466;2023-03-14T17:19:35;0.47;;;0.03;;
49548;SDS011;35450;44.518;7.466;2023-03-14T17:22:39;1.42;;;0.80;;
49548;SDS011;35450;44.518;7.466;2023-03-14T17:25:47;2.20;;;0.20;;
49548;SDS011;35450;44.518;7.466;2023-03-14T17:28:53;0.68;;;0.60;;
49548;SDS011;35450;44.518;7.466;2023-03-14T17:31:57;1.17;;;0.77;;
49548;SDS011;35450;44.518;7.466;2023-03-14T17:35:01;0.75;;;0.55;;
49548;SDS011;35450;44.518;7.466;2023-03-14T17:38:05;2.70;;;1.73;;
49548;SDS011;35450;44.518;7.466;2023-03-14T17:41:11;3.42;;;0.20;;
49548;SDS011;35450;44.518;7.466;2023-03-14T17:44:16;0.73;;;0.40;;
49548;SDS011;35450;44.518;7.466;2023-03-14T17:47:20;0.25;;;0.00;;
49548;SDS011;35450;44.518;7.466;2023-03-14T17:50:24;0.10;;;0.00;;
49548;SDS011;35450;44.518;7.466;2023-03-14T17:53:29;0.32;;;0.10;;
49548;SDS011;35450;44.518;7.466;2023-03-14T17:56:34;1.30;;;0.60;;
49548;SDS011;35450;44.518;7.466;2023-03-14T17:59:38;2.53;;;1.15;;
49548;SDS011;35450;44.518;7.466;2023-03-14T18:02:42;1.40;;;0.30;;
49548;SDS011;35450;44.518;7.466;2023-03-14T18:05:47;12.88;;;4.07;;
49548;SDS011;35450;44.518;7.466;2023-03-14T18:08:50;4.38;;;2.45;;
49548;SDS011;35450;44.518;7.466;2023-03-14T18:11:55;11.82;;;5.10;;
49548;SDS011;35450;44.518;7.466;2023-03-14T18:14:58;9.95;;;5.80;;
49548;SDS011;35450;44.518;7.466;2023-03-14T18:18:04;4.20;;;1.98;;
49548;SDS011;35450;44.518;7.466;2023-03-14T18:21:09;0.52;;;0.20;;
49548;SDS011;35450;44.518;7.466;2023-03-14T18:24:14;0.70;;;0.30;;
49548;SDS011;35450;44.518;7.466;2023-03-14T18:27:18;1.00;;;0.50;;
49548;SDS011;35450;44.518;7.466;2023-03-14T18:30:23;0.45;;;0.10;;
49548;SDS011;35450;44.518;7.466;2023-03-14T18:33:27;1.00;;;0.35;;
49548;SDS011;35450;44.518;7.466;2023-03-14T18:36:31;0.70;;;0.20;;
49548;SDS011;35450;44.518;7.466;2023-03-14T18:39:35;1.20;;;0.52;;
49548;SDS011;35450;44.518;7.466;2023-03-14T18:42:39;0.85;;;0.30;;
49548;SDS011;35450;44.518;7.466;2023-03-14T18:45:44;3.22;;;0.60;;
49548;SDS011;35450;44.518;7.466;2023-03-14T18:48:48;0.10;;;0.10;;
49548;SDS011;35450;44.518;7.466;2023-03-14T18:51:58;1.60;;;0.60;;
49548;SDS011;35450;44.518;7.466;2023-03-14T18:55:02;0.70;;;0.10;;
49548;SDS011;35450;44.518;7.466;2023-03-14T18:58:06;1.17;;;0.20;;
49548;SDS011;35450;44.518;7.466;2023-03-14T19:01:12;1.05;;;0.50;;
49548;SDS011;35450;44.518;7.466;2023-03-14T19:04:16;1.05;;;0.15;;
49548;SDS011;35450;44.518;7.466;2023-03-14T19:07:20;0.15;;;0.15;;
49548;SDS011;35450;44.518;7.466;2023-03-14T19:10:25;0.10;;;0.00;;
49548;SDS011;35450;44.518;7.466;2023-03-14T19:13:30;1.13;;;0.60;;
49548;SDS011;35450;44.518;7.466;2023-03-14T19:16:35;0.80;;;0.40;;
49548;SDS011;35450;44.518;7.466;2023-03-14T19:19:39;4.60;;;2.42;;